createdAt,value
2019-05-23T00:00:03.468Z,95691.00
2019-05-23T00:02:42.088Z,95687.00
2019-05-23T00:05:31.339Z,95681.00
2019-05-23T00:08:04.028Z,95697.00
2019-05-23T00:10:38.446Z,95685.00
2019-05-23T00:13:17.584Z,95681.00
2019-05-23T00:15:53.033Z,95690.00
2019-05-23T00:18:24.182Z,95695.00
2019-05-23T00:20:55.303Z,95682.00
2019-05-23T00:23:26.681Z,95694.00
2019-05-23T00:25:56.860Z,95686.00
2019-05-23T00:28:27.491Z,95691.00
2019-05-23T00:31:01.467Z,95691.00
2019-05-23T00:33:33.087Z,95692.00
2019-05-23T00:36:04.201Z,95692.00
2019-05-23T00:38:34.616Z,95683.00
2019-05-23T00:41:04.779Z,95679.00
2019-05-23T00:43:36.047Z,95680.00
2019-05-23T00:46:07.022Z,95690.00
2019-05-23T00:48:38.611Z,95678.00
2019-05-23T00:51:09.691Z,95683.00
2019-05-23T00:53:40.179Z,95680.00
2019-05-23T00:56:10.418Z,95680.00
2019-05-23T00:58:40.946Z,95667.00
2019-05-23T01:01:11.478Z,95683.00
2019-05-23T01:03:42.626Z,95679.00
2019-05-23T01:06:14.097Z,95677.00
2019-05-23T01:08:44.817Z,95678.00
2019-05-23T01:11:16.254Z,95679.00
2019-05-23T01:13:46.749Z,95678.00
2019-05-23T01:16:18.710Z,95678.00
2019-05-23T01:18:49.877Z,95672.00
2019-05-23T01:21:39.839Z,95671.00
2019-05-23T01:24:25.546Z,95690.00
2019-05-23T01:26:56.416Z,95678.00
2019-05-23T01:29:37.485Z,95680.00
2019-05-23T01:32:07.376Z,95678.00
2019-05-23T01:34:38.722Z,95678.00
2019-05-23T01:37:10.133Z,95675.00
2019-05-23T01:39:40.445Z,95669.00
2019-05-23T01:42:11.051Z,95681.00
2019-05-23T01:44:41.319Z,95673.00
2019-05-23T01:47:11.861Z,95671.00
2019-05-23T01:49:41.869Z,95674.00
2019-05-23T01:52:13.488Z,95671.00
2019-05-23T01:54:44.353Z,95674.00
2019-05-23T01:57:14.354Z,95670.00
2019-05-23T01:59:44.776Z,95668.00
2019-05-23T02:02:17.097Z,95682.00
2019-05-23T02:04:47.557Z,95687.00
2019-05-23T02:07:18.199Z,95673.00
2019-05-23T02:09:48.678Z,95678.00
2019-05-23T02:12:19.382Z,95677.00
2019-05-23T02:14:49.590Z,95680.00
2019-05-23T02:17:19.658Z,95670.00
2019-05-23T02:19:50.047Z,95678.00
2019-05-23T02:22:20.492Z,95673.00
2019-05-23T02:24:51.087Z,95671.00
2019-05-23T02:27:23.038Z,95669.00
2019-05-23T02:29:53.214Z,95675.00
2019-05-23T02:32:23.467Z,95674.00
2019-05-23T02:34:54.400Z,95671.00
2019-05-23T02:37:37.733Z,95680.00
2019-05-23T02:40:17.552Z,95679.00
2019-05-23T02:42:55.595Z,95680.00
2019-05-23T02:45:37.200Z,95675.00
2019-05-23T02:48:11.927Z,95686.00
2019-05-23T02:50:50.946Z,95672.00
2019-05-23T02:53:25.226Z,95675.00
2019-05-23T02:55:59.587Z,95674.00
2019-05-23T02:58:41.050Z,95674.00
2019-05-23T03:01:42.315Z,95685.00
2019-05-23T03:04:17.822Z,95673.00
2019-05-23T03:06:48.214Z,95668.00
2019-05-23T03:09:23.802Z,95670.00
2019-05-23T03:11:59.960Z,95659.00
2019-05-23T03:14:30.918Z,95663.00
2019-05-23T03:17:03.570Z,95668.00
2019-05-23T03:19:47.956Z,95655.00
2019-05-23T03:22:42.561Z,95666.00
2019-05-23T03:26:18.776Z,95678.00
2019-05-23T03:28:49.550Z,95669.00
2019-05-23T03:31:33.185Z,95669.00
2019-05-23T03:34:04.031Z,95664.00
2019-05-23T03:36:34.548Z,95665.00
2019-05-23T03:39:07.420Z,95657.00
2019-05-23T03:41:38.691Z,95661.00
2019-05-23T03:44:10.267Z,95653.00
2019-05-23T03:46:44.729Z,95666.00
2019-05-23T03:49:16.277Z,95667.00
2019-05-23T03:51:46.833Z,95663.00
2019-05-23T03:54:18.644Z,95654.00
2019-05-23T03:56:49.710Z,95671.00
2019-05-23T03:59:22.558Z,95658.00
2019-05-23T04:01:55.005Z,95665.00
2019-05-23T04:04:26.039Z,95674.00
2019-05-23T04:06:57.314Z,95675.00
2019-05-23T04:09:27.995Z,95670.00
2019-05-23T04:11:58.264Z,95671.00
2019-05-23T04:14:28.772Z,95677.00
2019-05-23T04:16:59.414Z,95679.00
2019-05-23T04:19:29.717Z,95680.00
2019-05-23T04:21:59.828Z,95676.00
2019-05-23T04:24:30.080Z,95682.00
2019-05-23T04:27:00.253Z,95684.00
2019-05-23T04:29:30.407Z,95683.00
2019-05-23T04:32:07.627Z,95676.00
2019-05-23T04:34:32.723Z,95681.00
2019-05-23T04:37:03.380Z,95687.00
2019-05-23T04:39:34.659Z,95681.00
2019-05-23T04:42:05.408Z,95694.00
2019-05-23T04:44:35.809Z,95684.00
2019-05-23T04:47:06.552Z,95697.00
2019-05-23T04:49:38.730Z,95689.00
2019-05-23T04:52:09.180Z,95683.00
2019-05-23T04:54:39.656Z,95690.00
2019-05-23T04:57:09.992Z,95685.00
2019-05-23T04:59:41.073Z,95691.00
2019-05-23T05:02:25.338Z,95688.00
2019-05-23T05:04:44.284Z,95688.00
2019-05-23T05:07:14.456Z,95698.00
2019-05-23T05:09:45.333Z,95692.00
2019-05-23T05:12:17.048Z,95692.00
2019-05-23T05:14:47.335Z,95693.00
2019-05-23T05:17:17.411Z,95692.00
2019-05-23T05:19:47.419Z,95691.00
2019-05-23T05:22:17.520Z,95691.00
2019-05-23T05:24:47.503Z,95696.00
2019-05-23T05:27:19.282Z,95695.00
2019-05-23T05:29:49.383Z,95697.00
2019-05-23T05:32:20.245Z,95702.00
2019-05-23T05:34:50.825Z,95695.00
2019-05-23T05:37:20.902Z,95700.00
2019-05-23T05:39:51.327Z,95706.00
2019-05-23T05:42:21.462Z,95700.00
2019-05-23T05:44:51.566Z,95718.00
2019-05-23T05:47:21.561Z,95704.00
2019-05-23T05:49:51.650Z,95705.00
2019-05-23T05:52:21.717Z,95710.00
2019-05-23T05:54:51.796Z,95701.00
2019-05-23T05:57:21.875Z,95706.00
2019-05-23T05:59:52.170Z,95705.00
2019-05-23T06:02:22.659Z,95709.00
2019-05-23T06:04:52.800Z,95705.00
2019-05-23T06:07:35.386Z,95717.00
2019-05-23T06:10:11.227Z,95715.00
2019-05-23T06:12:41.405Z,95708.00
2019-05-23T06:15:11.789Z,95711.00
2019-05-23T06:17:42.772Z,95708.00
2019-05-23T06:20:13.559Z,95718.00
2019-05-23T06:22:44.571Z,95707.00
2019-05-23T06:25:15.279Z,95707.00
2019-05-23T06:27:46.569Z,95708.00
2019-05-23T06:30:21.097Z,95710.00
2019-05-23T06:32:51.158Z,95718.00
2019-05-23T06:35:22.020Z,95719.00
2019-05-23T06:37:52.111Z,95715.00
2019-05-23T06:40:22.511Z,95719.00
2019-05-23T06:42:52.644Z,95706.00
2019-05-23T06:45:22.849Z,95711.00
2019-05-23T06:47:52.998Z,95715.00
2019-05-23T06:50:23.969Z,95718.00
2019-05-23T06:52:54.161Z,95710.00
2019-05-23T06:55:24.268Z,95696.00
2019-05-23T06:57:54.746Z,95700.00
2019-05-23T07:00:27.342Z,95706.00
2019-05-23T07:02:57.562Z,95705.00
2019-05-23T07:05:33.826Z,95708.00
2019-05-23T07:08:04.751Z,95705.00
2019-05-23T07:10:34.886Z,95718.00
2019-05-23T07:13:05.472Z,95718.00
2019-05-23T07:15:36.017Z,95723.00
2019-05-23T07:18:07.052Z,95718.00
2019-05-23T07:20:37.650Z,95717.00
2019-05-23T07:23:12.217Z,95715.00
2019-05-23T07:25:42.394Z,95720.00
2019-05-23T07:28:12.578Z,95719.00
2019-05-23T07:30:42.614Z,95721.00
2019-05-23T07:33:14.374Z,95716.00
2019-05-23T07:35:44.404Z,95719.00
2019-05-23T07:38:14.700Z,95705.00
2019-05-23T07:40:45.575Z,95707.00
2019-05-23T07:43:15.575Z,95704.00
2019-05-23T07:45:53.490Z,95701.00
2019-05-23T07:48:23.639Z,95700.00
2019-05-23T07:50:53.817Z,95698.00
2019-05-23T07:53:44.450Z,95698.00
2019-05-23T07:56:16.284Z,95693.00
2019-05-23T07:58:46.353Z,95688.00
2019-05-23T08:01:19.312Z,95692.00
2019-05-23T08:03:52.189Z,95698.00
2019-05-23T08:06:22.858Z,95700.00
2019-05-23T08:08:53.143Z,95693.00
2019-05-23T08:11:23.726Z,95699.00
2019-05-23T08:13:54.413Z,95682.00
2019-05-23T08:16:24.867Z,95690.00
2019-05-23T08:18:55.163Z,95680.00
2019-05-23T08:21:25.520Z,95690.00
2019-05-23T08:23:55.755Z,95681.00
2019-05-23T08:26:27.492Z,95682.00
2019-05-23T08:29:24.036Z,95684.00
2019-05-23T08:31:29.727Z,95684.00
2019-05-23T08:34:00.478Z,95682.00
2019-05-23T08:36:30.851Z,95681.00
2019-05-23T08:39:01.499Z,95676.00
2019-05-23T08:41:32.473Z,95683.00
2019-05-23T08:44:03.773Z,95682.00
2019-05-23T08:46:35.216Z,95677.00
2019-05-23T08:49:06.122Z,95687.00
2019-05-23T08:51:36.614Z,95673.00
2019-05-23T08:54:06.917Z,95682.00
2019-05-23T08:56:37.364Z,95681.00
2019-05-23T08:59:08.801Z,95672.00
2019-05-23T09:01:39.307Z,95679.00
2019-05-23T09:04:10.285Z,95676.00
2019-05-23T09:06:41.614Z,95669.00
2019-05-23T09:09:28.449Z,95670.00
2019-05-23T09:11:45.597Z,95670.00
2019-05-23T09:14:15.642Z,95670.00
2019-05-23T09:16:45.644Z,95664.00
2019-05-23T09:19:16.369Z,95660.00
2019-05-23T09:21:47.501Z,95659.00
2019-05-23T09:24:17.638Z,95671.00
2019-05-23T09:26:47.895Z,95672.00
2019-05-23T09:29:18.451Z,95671.00
2019-05-23T09:31:48.607Z,95672.00
2019-05-23T09:34:18.792Z,95671.00
2019-05-23T09:36:48.779Z,95682.00
2019-05-23T09:39:20.944Z,95675.00
2019-05-23T09:41:50.935Z,95670.00
2019-05-23T09:44:21.282Z,95664.00
2019-05-23T09:46:51.302Z,95665.00
2019-05-23T09:49:21.929Z,95673.00
2019-05-23T09:51:55.565Z,95671.00
2019-05-23T09:54:24.018Z,95653.00
2019-05-23T09:56:54.004Z,95652.00
2019-05-23T09:59:24.480Z,95651.00
2019-05-23T10:01:55.635Z,95648.00
2019-05-23T10:04:25.781Z,95640.00
2019-05-23T10:06:55.878Z,95653.00
2019-05-23T10:09:25.926Z,95652.00
2019-05-23T10:11:56.328Z,95656.00
2019-05-23T10:14:29.618Z,95656.00
2019-05-23T10:16:59.787Z,95655.00
2019-05-23T10:19:29.783Z,95657.00
2019-05-23T10:21:59.735Z,95639.00
2019-05-23T10:24:30.009Z,95647.00
2019-05-23T10:27:00.296Z,95643.00
2019-05-23T10:29:30.369Z,95641.00
2019-05-23T10:32:00.472Z,95628.00
2019-05-23T10:34:30.430Z,95632.00
2019-05-23T10:37:00.745Z,95636.00
2019-05-23T10:39:31.309Z,95635.00
2019-05-23T10:42:01.352Z,95633.00
2019-05-23T10:44:31.439Z,95623.00
2019-05-23T10:47:01.582Z,95620.00
2019-05-23T10:49:31.602Z,95610.00
2019-05-23T10:52:01.602Z,95617.00
2019-05-23T10:54:31.639Z,95615.00
2019-05-23T10:57:01.561Z,95617.00
2019-05-23T10:59:32.185Z,95603.00
2019-05-23T11:02:02.647Z,95612.00
2019-05-23T11:04:33.361Z,95597.00
2019-05-23T11:07:03.490Z,95607.00
2019-05-23T11:09:37.794Z,95599.00
2019-05-23T11:12:05.985Z,95596.00
2019-05-23T11:14:36.412Z,95591.00
2019-05-23T11:17:08.171Z,95594.00
2019-05-23T11:19:38.418Z,95589.00
2019-05-23T11:22:08.745Z,95598.00
2019-05-23T11:24:38.969Z,95605.00
2019-05-23T11:27:09.418Z,95600.00
2019-05-23T11:29:39.461Z,95601.00
2019-05-23T11:32:10.873Z,95585.00
2019-05-23T11:34:40.963Z,95587.00
2019-05-23T11:37:11.797Z,95586.00
2019-05-23T11:39:49.269Z,95580.00
2019-05-23T11:42:14.126Z,95580.00
2019-05-23T11:44:44.747Z,95578.00
2019-05-23T11:47:16.784Z,95570.00
2019-05-23T11:49:47.191Z,95583.00
2019-05-23T11:52:17.334Z,95577.00
2019-05-23T11:54:47.360Z,95572.00
2019-05-23T11:57:17.793Z,95575.00
2019-05-23T11:59:48.011Z,95569.00
2019-05-23T12:02:26.585Z,95570.00
2019-05-23T12:04:58.348Z,95568.00
2019-05-23T12:07:33.438Z,95568.00
2019-05-23T12:10:03.779Z,95574.00
2019-05-23T12:12:33.809Z,95568.00
2019-05-23T12:15:06.731Z,95556.00
2019-05-23T12:17:36.748Z,95555.00
2019-05-23T12:20:08.414Z,95558.00
2019-05-23T12:22:38.908Z,95555.00
2019-05-23T12:25:21.779Z,95552.00
2019-05-23T12:27:43.600Z,95553.00
2019-05-23T12:30:15.950Z,95552.00
2019-05-23T12:32:46.456Z,95543.00
2019-05-23T12:35:16.734Z,95540.00
2019-05-23T12:37:46.847Z,95539.00
2019-05-23T12:40:17.109Z,95531.00
2019-05-23T12:42:47.694Z,95529.00
2019-05-23T12:45:19.337Z,95537.00
2019-05-23T12:47:54.820Z,95532.00
2019-05-23T12:50:28.805Z,95539.00
2019-05-23T12:52:58.815Z,95535.00
2019-05-23T12:55:29.168Z,95530.00
2019-05-23T12:58:00.040Z,95524.00
2019-05-23T13:00:39.140Z,95524.00
2019-05-23T13:03:09.562Z,95528.00
2019-05-23T13:05:40.386Z,95521.00
2019-05-23T13:08:10.583Z,95525.00
2019-05-23T13:10:40.680Z,95518.00
2019-05-23T13:13:11.040Z,95520.00
2019-05-23T13:15:41.530Z,95520.00
2019-05-23T13:18:11.700Z,95518.00
2019-05-23T13:20:42.012Z,95523.00
2019-05-23T13:23:20.458Z,95526.00
2019-05-23T13:25:44.815Z,95528.00
2019-05-23T13:28:15.133Z,95523.00
2019-05-23T13:30:45.285Z,95522.00
2019-05-23T13:33:15.474Z,95515.00
2019-05-23T13:35:45.852Z,95519.00
2019-05-23T13:38:17.259Z,95516.00
2019-05-23T13:40:47.318Z,95522.00
2019-05-23T13:43:17.461Z,95524.00
2019-05-23T13:45:48.098Z,95517.00
2019-05-23T13:48:18.045Z,95519.00
2019-05-23T13:50:48.261Z,95510.00
2019-05-23T13:53:18.377Z,95507.00
2019-05-23T13:55:48.470Z,95515.00
2019-05-23T13:58:18.752Z,95505.00
2019-05-23T14:00:49.829Z,95504.00
2019-05-23T14:03:20.094Z,95500.00
2019-05-23T14:05:50.326Z,95506.00
2019-05-23T14:08:20.695Z,95498.00
2019-05-23T14:10:51.446Z,95496.00
2019-05-23T14:13:21.988Z,95497.00
2019-05-23T14:15:53.447Z,95498.00
2019-05-23T14:18:25.862Z,95491.00
2019-05-23T14:20:55.764Z,95486.00
2019-05-23T14:23:30.013Z,95487.00
2019-05-23T14:26:01.351Z,95486.00
2019-05-23T14:28:32.236Z,95486.00
2019-05-23T14:31:19.500Z,95481.00
2019-05-23T14:34:04.207Z,95480.00
2019-05-23T14:37:05.736Z,95482.00
2019-05-23T14:39:39.441Z,95480.00
2019-05-23T14:42:27.141Z,95482.00
2019-05-23T14:44:57.744Z,95474.00
2019-05-23T14:47:50.015Z,95474.00
2019-05-23T14:50:31.876Z,95470.00
2019-05-23T14:53:03.513Z,95478.00
2019-05-23T14:55:33.722Z,95471.00
2019-05-23T14:58:04.718Z,95465.00
2019-05-23T15:00:34.907Z,95466.00
2019-05-23T15:03:05.285Z,95469.00
2019-05-23T15:05:35.654Z,95463.00
2019-05-23T15:08:05.806Z,95465.00
2019-05-23T15:10:35.893Z,95454.00
2019-05-23T15:13:06.204Z,95459.00
2019-05-23T15:15:36.426Z,95454.00
2019-05-23T15:18:06.895Z,95460.00
2019-05-23T15:20:36.882Z,95459.00
2019-05-23T15:23:07.276Z,95453.00
2019-05-23T15:25:37.443Z,95463.00
2019-05-23T15:28:07.702Z,95448.00
2019-05-23T15:30:37.948Z,95454.00
2019-05-23T15:33:08.023Z,95459.00
2019-05-23T15:35:38.443Z,95453.00
2019-05-23T15:38:08.592Z,95445.00
2019-05-23T15:40:38.688Z,95444.00
2019-05-23T15:43:10.016Z,95443.00
2019-05-23T15:45:40.676Z,95445.00
2019-05-23T15:48:10.602Z,95442.00
2019-05-23T15:50:46.087Z,95444.00
2019-05-23T15:53:33.095Z,95440.00
2019-05-23T15:56:26.021Z,95440.00
2019-05-23T15:58:52.128Z,95443.00
2019-05-23T16:01:25.540Z,95439.00
2019-05-23T16:03:58.946Z,95439.00
2019-05-23T16:06:30.641Z,95434.00
2019-05-23T16:09:00.942Z,95434.00
2019-05-23T16:11:31.339Z,95431.00
2019-05-23T16:14:01.533Z,95430.00
2019-05-23T16:16:32.421Z,95434.00
2019-05-23T16:19:02.630Z,95434.00
2019-05-23T16:21:32.783Z,95434.00
2019-05-23T16:24:03.077Z,95426.00
2019-05-23T16:26:33.224Z,95424.00
2019-05-23T16:29:03.817Z,95419.00
2019-05-23T16:31:33.931Z,95427.00
2019-05-23T16:34:04.762Z,95431.00
2019-05-23T16:36:34.853Z,95427.00
2019-05-23T16:39:07.518Z,95430.00
2019-05-23T16:41:37.988Z,95423.00
2019-05-23T16:44:08.324Z,95430.00
2019-05-23T16:46:38.327Z,95427.00
2019-05-23T16:49:08.866Z,95431.00
2019-05-23T16:51:39.174Z,95426.00
2019-05-23T16:54:09.563Z,95424.00
2019-05-23T16:56:56.765Z,95431.00
2019-05-23T16:59:43.489Z,95424.00
2019-05-23T17:02:25.221Z,95425.00
2019-05-23T17:05:09.979Z,95420.00
2019-05-23T17:07:56.776Z,95419.00
2019-05-23T17:10:36.562Z,95424.00
2019-05-23T17:13:34.590Z,95423.00
2019-05-23T17:16:13.835Z,95427.00
2019-05-23T17:18:55.632Z,95424.00
2019-05-23T17:21:47.121Z,95428.00
2019-05-23T17:24:40.025Z,95428.00
2019-05-23T17:27:24.077Z,95430.00
2019-05-23T17:29:57.595Z,95428.00
2019-05-23T17:32:31.601Z,95419.00
2019-05-23T17:35:01.699Z,95425.00
2019-05-23T17:37:32.175Z,95424.00
2019-05-23T17:40:02.331Z,95431.00
2019-05-23T17:42:32.802Z,95423.00
2019-05-23T17:45:03.015Z,95423.00
2019-05-23T17:47:33.017Z,95423.00
2019-05-23T17:50:03.108Z,95423.00
2019-05-23T17:52:33.680Z,95431.00
2019-05-23T17:55:04.395Z,95431.00
2019-05-23T17:57:34.590Z,95420.00
2019-05-23T18:00:05.449Z,95416.00
2019-05-23T18:02:35.558Z,95423.00
2019-05-23T18:05:07.232Z,95422.00
2019-05-23T18:07:38.207Z,95428.00
2019-05-23T18:10:11.125Z,95421.00
2019-05-23T18:12:41.190Z,95429.00
2019-05-23T18:15:13.584Z,95413.00
2019-05-23T18:17:43.534Z,95418.00
2019-05-23T18:20:14.355Z,95429.00
2019-05-23T18:22:44.546Z,95424.00
2019-05-23T18:25:15.486Z,95426.00
2019-05-23T18:27:45.565Z,95422.00
2019-05-23T18:30:32.807Z,95424.00
2019-05-23T18:33:03.836Z,95427.00
2019-05-23T18:35:34.390Z,95424.00
2019-05-23T18:38:04.747Z,95425.00
2019-05-23T18:40:34.982Z,95438.00
2019-05-23T18:43:06.732Z,95431.00
2019-05-23T18:45:38.642Z,95430.00
2019-05-23T18:48:09.090Z,95433.00
2019-05-23T18:50:39.850Z,95431.00
2019-05-23T18:53:11.380Z,95437.00
2019-05-23T18:55:41.352Z,95440.00
2019-05-23T18:58:11.538Z,95443.00
2019-05-23T19:01:13.895Z,95441.00
2019-05-23T19:03:44.398Z,95445.00
2019-05-23T19:06:14.667Z,95459.00
2019-05-23T19:08:44.902Z,95449.00
2019-05-23T19:11:20.889Z,95459.00
2019-05-23T19:13:47.450Z,95458.00
2019-05-23T19:16:17.685Z,95459.00
2019-05-23T19:18:48.728Z,95461.00
2019-05-23T19:21:19.510Z,95458.00
2019-05-23T19:23:49.696Z,95463.00
2019-05-23T19:26:21.847Z,95465.00
2019-05-23T19:28:52.473Z,95463.00
2019-05-23T19:31:23.615Z,95459.00
2019-05-23T19:33:54.112Z,95460.00
2019-05-23T19:36:24.358Z,95463.00
2019-05-23T19:38:54.482Z,95464.00
2019-05-23T19:41:37.087Z,95468.00
2019-05-23T19:43:56.915Z,95452.00
2019-05-23T19:46:27.121Z,95462.00
2019-05-23T19:48:57.989Z,95462.00
2019-05-23T19:51:28.361Z,95460.00
2019-05-23T19:53:59.532Z,95461.00
2019-05-23T19:56:30.456Z,95459.00
2019-05-23T19:59:00.678Z,95463.00
2019-05-23T20:01:35.538Z,95454.00
2019-05-23T20:04:06.376Z,95462.00
2019-05-23T20:06:36.460Z,95463.00
2019-05-23T20:09:11.073Z,95458.00
2019-05-23T20:11:53.893Z,95467.00
2019-05-23T20:14:12.900Z,95463.00
2019-05-23T20:16:43.130Z,95460.00
2019-05-23T20:19:13.385Z,95458.00
2019-05-23T20:21:43.889Z,95460.00
2019-05-23T20:24:14.096Z,95444.00
2019-05-23T20:26:44.187Z,95453.00
2019-05-23T20:29:14.264Z,95460.00
2019-05-23T20:31:47.856Z,95446.00
2019-05-23T20:34:16.115Z,95454.00
2019-05-23T20:36:46.147Z,95451.00
2019-05-23T20:39:17.201Z,95458.00
2019-05-23T20:41:47.371Z,95450.00
2019-05-23T20:44:17.617Z,95458.00
2019-05-23T20:46:47.758Z,95447.00
2019-05-23T20:49:17.931Z,95441.00
2019-05-23T20:51:48.130Z,95439.00
2019-05-23T20:54:18.330Z,95432.00
2019-05-23T20:56:48.823Z,95441.00
2019-05-23T20:59:18.993Z,95436.00
2019-05-23T21:01:49.571Z,95437.00
2019-05-23T21:04:19.748Z,95433.00
2019-05-23T21:06:49.692Z,95437.00
2019-05-23T21:09:19.919Z,95433.00
2019-05-23T21:11:50.002Z,95442.00
2019-05-23T21:14:20.214Z,95437.00
2019-05-23T21:16:50.322Z,95440.00
2019-05-23T21:19:20.501Z,95437.00
2019-05-23T21:21:50.724Z,95436.00
2019-05-23T21:24:20.972Z,95443.00
2019-05-23T21:26:51.031Z,95434.00
2019-05-23T21:29:21.302Z,95442.00
2019-05-23T21:31:51.441Z,95434.00
2019-05-23T21:34:22.270Z,95441.00
2019-05-23T21:36:52.520Z,95436.00
2019-05-23T21:39:22.625Z,95436.00
2019-05-23T21:41:52.744Z,95434.00
2019-05-23T21:44:22.853Z,95428.00
2019-05-23T21:46:54.050Z,95437.00
2019-05-23T21:49:24.404Z,95434.00
2019-05-23T21:51:54.572Z,95434.00
2019-05-23T21:54:24.607Z,95436.00
2019-05-23T21:56:55.797Z,95422.00
2019-05-23T21:59:25.880Z,95441.00
2019-05-23T22:02:02.635Z,95441.00
2019-05-23T22:04:36.570Z,95434.00
2019-05-23T22:07:07.899Z,95430.00
2019-05-23T22:09:38.462Z,95431.00
2019-05-23T22:12:13.779Z,95428.00
2019-05-23T22:14:44.225Z,95426.00
2019-05-23T22:17:14.316Z,95420.00
2019-05-23T22:19:44.303Z,95420.00
2019-05-23T22:22:14.469Z,95420.00
2019-05-23T22:24:44.561Z,95414.00
2019-05-23T22:27:14.827Z,95420.00
2019-05-23T22:29:44.989Z,95424.00
2019-05-23T22:32:16.723Z,95426.00
2019-05-23T22:34:51.839Z,95418.00
2019-05-23T22:37:25.880Z,95412.00
2019-05-23T22:39:55.914Z,95415.00
2019-05-23T22:42:28.002Z,95414.00
2019-05-23T22:44:58.149Z,95412.00
2019-05-23T22:47:28.179Z,95414.00
2019-05-23T22:49:58.237Z,95414.00
2019-05-23T22:52:28.440Z,95411.00
2019-05-23T22:54:58.521Z,95411.00
2019-05-23T22:57:28.625Z,95417.00
2019-05-23T22:59:58.683Z,95405.00
2019-05-23T23:02:28.709Z,95412.00
2019-05-23T23:04:58.759Z,95408.00
2019-05-23T23:07:29.065Z,95411.00
2019-05-23T23:09:59.358Z,95405.00
2019-05-23T23:12:29.368Z,95402.00
2019-05-23T23:14:59.530Z,95398.00
2019-05-23T23:17:29.713Z,95397.00
2019-05-23T23:19:59.731Z,95399.00
2019-05-23T23:22:29.812Z,95403.00
2019-05-23T23:25:00.001Z,95398.00
2019-05-23T23:27:30.075Z,95387.00
2019-05-23T23:30:00.097Z,95392.00
2019-05-23T23:32:30.225Z,95391.00
2019-05-23T23:35:00.258Z,95377.00
2019-05-23T23:37:30.266Z,95395.00
2019-05-23T23:40:00.187Z,95380.00
2019-05-23T23:42:30.226Z,95384.00
2019-05-23T23:45:17.707Z,95387.00
2019-05-23T23:48:05.418Z,95384.00
2019-05-23T23:50:53.360Z,95379.00
2019-05-23T23:53:40.989Z,95380.00
2019-05-23T23:56:28.914Z,95377.00
2019-05-23T23:58:58.016Z,95386.00
